sensor_id;sensor_type;location;lat;lon;timestamp;pressure;altitude;pressure_sealevel;temperature;humidity
6853;BME280;3465;42.144;24.722;2023-07-02T00:01:02;148471.38;;;22.18;100.00
6853;BME280;3465;42.144;24.722;2023-07-02T00:03:28;148466.34;;;22.16;100.00
6853;BME280;3465;42.144;24.722;2023-07-02T00:05:54;148462.53;;;22.14;100.00
6853;BME280;3465;42.144;24.722;2023-07-02T00:08:21;148443.56;;;22.07;100.00
6853;BME280;3465;42.144;24.722;2023-07-02T00:10:47;148442.28;;;22.06;100.00
6853;BME280;3465;42.144;24.722;2023-07-02T00:13:12;148425.91;;;22.00;100.00
6853;BME280;3465;42.144;24.722;2023-07-02T00:15:38;148441.06;;;22.06;100.00
6853;BME280;3465;42.144;24.722;2023-07-02T00:18:03;148432.19;;;22.02;100.00
6853;BME280;3465;42.144;24.722;2023-07-02T00:20:29;148403.13;;;21.91;100.00
6853;BME280;3465;42.144;24.722;2023-07-02T00:22:55;148387.97;;;21.85;100.00
6853;BME280;3465;42.144;24.722;2023-07-02T00:25:21;148369.00;;;21.77;100.00
6853;BME280;3465;42.144;24.722;2023-07-02T00:27:47;148391.75;;;21.86;100.00
6853;BME280;3465;42.144;24.722;2023-07-02T00:30:13;148349.97;;;21.70;100.00
6853;BME280;3465;42.144;24.722;2023-07-02T00:32:38;148355.03;;;21.72;100.00
6853;BME280;3465;42.144;24.722;2023-07-02T00:35:04;148347.47;;;21.69;100.00
6853;BME280;3465;42.144;24.722;2023-07-02T00:37:29;148355.03;;;21.72;100.00
6853;BME280;3465;42.144;24.722;2023-07-02T00:39:55;148361.34;;;21.74;100.00
6853;BME280;3465;42.144;24.722;2023-07-02T00:42:20;148356.31;;;21.72;100.00
6853;BME280;3465;42.144;24.722;2023-07-02T00:44:46;148291.88;;;21.47;100.00
6853;BME280;3465;42.144;24.722;2023-07-02T00:47:11;148289.31;;;21.46;100.00
6853;BME280;3465;42.144;24.722;2023-07-02T00:49:39;148304.50;;;21.52;100.00
6853;BME280;3465;42.144;24.722;2023-07-02T00:52:05;148331.03;;;21.62;100.00
6853;BME280;3465;42.144;24.722;2023-07-02T00:54:31;148325.97;;;21.60;100.00
6853;BME280;3465;42.144;24.722;2023-07-02T00:56:57;148349.97;;;21.70;100.00
6853;BME280;3465;42.144;24.722;2023-07-02T00:59:28;148360.09;;;21.74;100.00
6853;BME280;3465;42.144;24.722;2023-07-02T01:01:55;148344.97;;;21.68;100.00
6853;BME280;3465;42.144;24.722;2023-07-02T01:04:22;148343.69;;;21.67;100.00
6853;BME280;3465;42.144;24.722;2023-07-02T01:06:53;148349.97;;;21.70;100.00
6853;BME280;3465;42.144;24.722;2023-07-02T01:09:22;148362.63;;;21.75;100.00
6853;BME280;3465;42.144;24.722;2023-07-02T01:11:54;148375.31;;;21.80;100.00
6853;BME280;3465;42.144;24.722;2023-07-02T01:14:28;148375.31;;;21.80;100.00
6853;BME280;3465;42.144;24.722;2023-07-02T01:16:57;148379.09;;;21.81;100.00
6853;BME280;3465;42.144;24.722;2023-07-02T01:21:58;148386.69;;;21.84;100.00
6853;BME280;3465;42.144;24.722;2023-07-02T01:24:23;148349.97;;;21.70;100.00
6853;BME280;3465;42.144;24.722;2023-07-02T01:26:49;148314.59;;;21.56;100.00
6853;BME280;3465;42.144;24.722;2023-07-02T01:29:19;148300.69;;;21.50;100.00
6853;BME280;3465;42.144;24.722;2023-07-02T01:31:46;148300.69;;;21.50;100.00
6853;BME280;3465;42.144;24.722;2023-07-02T01:34:12;148305.75;;;21.52;100.00
6853;BME280;3465;42.144;24.722;2023-07-02T01:36:38;148314.59;;;21.56;100.00
6853;BME280;3465;42.144;24.722;2023-07-02T01:39:03;148305.75;;;21.52;100.00
6853;BME280;3465;42.144;24.722;2023-07-02T01:41:29;148312.09;;;21.55;100.00
6853;BME280;3465;42.144;24.722;2023-07-02T01:43:55;148314.59;;;21.56;100.00
6853;BME280;3465;42.144;24.722;2023-07-02T01:46:20;148319.66;;;21.58;100.00
6853;BME280;3465;42.144;24.722;2023-07-02T01:48:46;148332.31;;;21.63;100.00
6853;BME280;3465;42.144;24.722;2023-07-02T01:51:11;148323.47;;;21.59;100.00
6853;BME280;3465;42.144;24.722;2023-07-02T01:53:36;148312.09;;;21.55;100.00
6853;BME280;3465;42.144;24.722;2023-07-02T01:56:02;148304.50;;;21.52;100.00
6853;BME280;3465;42.144;24.722;2023-07-02T01:58:27;148271.66;;;21.39;100.00
6853;BME280;3465;42.144;24.722;2023-07-02T02:00:53;148262.78;;;21.35;100.00
6853;BME280;3465;42.144;24.722;2023-07-02T02:03:18;148250.16;;;21.30;100.00
6853;BME280;3465;42.144;24.722;2023-07-02T02:05:44;148238.78;;;21.25;100.00
6853;BME280;3465;42.144;24.722;2023-07-02T02:08:09;148208.44;;;21.13;100.00
6853;BME280;3465;42.144;24.722;2023-07-02T02:10:34;148236.25;;;21.24;100.00
6853;BME280;3465;42.144;24.722;2023-07-02T02:13:00;148236.25;;;21.24;100.00
6853;BME280;3465;42.144;24.722;2023-07-02T02:15:25;148228.66;;;21.21;100.00
6853;BME280;3465;42.144;24.722;2023-07-02T02:17:51;148212.25;;;21.15;100.00
6853;BME280;3465;42.144;24.722;2023-07-02T02:20:16;148214.78;;;21.16;100.00
6853;BME280;3465;42.144;24.722;2023-07-02T02:22:42;148222.38;;;21.19;100.00
6853;BME280;3465;42.144;24.722;2023-07-02T02:25:07;148231.22;;;21.22;100.00
6853;BME280;3465;42.144;24.722;2023-07-02T02:27:33;148238.78;;;21.25;100.00
6853;BME280;3465;42.144;24.722;2023-07-02T02:29:58;148238.78;;;21.25;100.00
6853;BME280;3465;42.144;24.722;2023-07-02T02:32:24;148237.50;;;21.25;100.00
6853;BME280;3465;42.144;24.722;2023-07-02T02:34:49;148224.88;;;21.20;100.00
6853;BME280;3465;42.144;24.722;2023-07-02T02:37:14;148236.25;;;21.24;100.00
6853;BME280;3465;42.144;24.722;2023-07-02T02:39:40;148236.25;;;21.24;100.00
6853;BME280;3465;42.144;24.722;2023-07-02T02:42:05;148241.31;;;21.26;100.00
6853;BME280;3465;42.144;24.722;2023-07-02T02:44:31;148193.31;;;21.07;100.00
6853;BME280;3465;42.144;24.722;2023-07-02T02:46:57;148207.22;;;21.13;100.00
6853;BME280;3465;42.144;24.722;2023-07-02T02:49:23;148183.22;;;21.03;100.00
6853;BME280;3465;42.144;24.722;2023-07-02T02:51:48;148200.88;;;21.10;100.00
6853;BME280;3465;42.144;24.722;2023-07-02T02:54:14;148203.44;;;21.11;100.00
6853;BME280;3465;42.144;24.722;2023-07-02T02:56:39;148200.88;;;21.10;100.00
6853;BME280;3465;42.144;24.722;2023-07-02T02:59:05;148211.00;;;21.14;100.00
6853;BME280;3465;42.144;24.722;2023-07-02T03:01:30;148205.94;;;21.12;100.00
6853;BME280;3465;42.144;24.722;2023-07-02T03:03:58;148223.66;;;21.19;100.00
6853;BME280;3465;42.144;24.722;2023-07-02T03:06:24;148226.16;;;21.20;100.00
6853;BME280;3465;42.144;24.722;2023-07-02T03:08:49;148119.97;;;20.78;100.00
6853;BME280;3465;42.144;24.722;2023-07-02T03:11:15;148194.59;;;21.08;100.00
6853;BME280;3465;42.144;24.722;2023-07-02T03:13:40;148168.03;;;20.97;100.00
6853;BME280;3465;42.144;24.722;2023-07-02T03:16:06;148143.97;;;20.88;100.00
6853;BME280;3465;42.144;24.722;2023-07-02T03:18:31;148133.91;;;20.84;100.00
6853;BME280;3465;42.144;24.722;2023-07-02T03:20:58;148135.13;;;20.84;100.00
6853;BME280;3465;42.144;24.722;2023-07-02T03:23:24;148164.19;;;20.96;100.00
6853;BME280;3465;42.144;24.722;2023-07-02T03:25:49;148175.59;;;21.00;100.00
6853;BME280;3465;42.144;24.722;2023-07-02T03:28:14;148184.44;;;21.04;100.00
6853;BME280;3465;42.144;24.722;2023-07-02T03:30:40;148195.81;;;21.08;100.00
6853;BME280;3465;42.144;24.722;2023-07-02T03:33:05;148200.88;;;21.10;100.00
6853;BME280;3465;42.144;24.722;2023-07-02T03:35:31;148188.25;;;21.05;100.00
6853;BME280;3465;42.144;24.722;2023-07-02T03:37:56;148202.16;;;21.11;100.00
6853;BME280;3465;42.144;24.722;2023-07-02T03:40:23;148203.44;;;21.11;100.00
6853;BME280;3465;42.144;24.722;2023-07-02T03:42:48;148175.59;;;21.00;100.00
6853;BME280;3465;42.144;24.722;2023-07-02T03:45:14;148200.88;;;21.10;100.00
6853;BME280;3465;42.144;24.722;2023-07-02T03:47:39;148200.88;;;21.10;100.00
6853;BME280;3465;42.144;24.722;2023-07-02T03:50:05;148165.50;;;20.96;100.00
6853;BME280;3465;42.144;24.722;2023-07-02T03:52:30;148187.00;;;21.05;100.00
6853;BME280;3465;42.144;24.722;2023-07-02T03:54:55;148147.75;;;20.89;100.00
6853;BME280;3465;42.144;24.722;2023-07-02T03:57:21;148185.72;;;21.04;100.00
6853;BME280;3465;42.144;24.722;2023-07-02T03:59:46;148147.75;;;20.89;100.00
6853;BME280;3465;42.144;24.722;2023-07-02T04:02:11;148156.63;;;20.93;100.00
6853;BME280;3465;42.144;24.722;2023-07-02T04:04:37;148162.97;;;20.95;100.00
6853;BME280;3465;42.144;24.722;2023-07-02T04:07:02;148162.97;;;20.95;100.00
6853;BME280;3465;42.144;24.722;2023-07-02T04:09:28;148147.75;;;20.89;100.00
6853;BME280;3465;42.144;24.722;2023-07-02T04:11:53;148157.91;;;20.93;100.00
6853;BME280;3465;42.144;24.722;2023-07-02T04:14:18;148135.13;;;20.84;100.00
6853;BME280;3465;42.144;24.722;2023-07-02T04:16:45;148170.59;;;20.98;100.00
6853;BME280;3465;42.144;24.722;2023-07-02T04:19:10;148168.03;;;20.97;100.00
6853;BME280;3465;42.144;24.722;2023-07-02T04:21:36;148160.41;;;20.94;100.00
6853;BME280;3465;42.144;24.722;2023-07-02T04:24:01;148178.16;;;21.01;100.00
6853;BME280;3465;42.144;24.722;2023-07-02T04:26:27;148205.94;;;21.12;100.00
6853;BME280;3465;42.144;24.722;2023-07-02T04:28:53;148207.22;;;21.13;100.00
6853;BME280;3465;42.144;24.722;2023-07-02T04:31:19;148213.50;;;21.15;100.00
6853;BME280;3465;42.144;24.722;2023-07-02T04:33:44;148213.50;;;21.15;100.00
6853;BME280;3465;42.144;24.722;2023-07-02T04:36:10;148238.78;;;21.25;100.00
6853;BME280;3465;42.144;24.722;2023-07-02T04:38:35;148221.09;;;21.18;100.00
6853;BME280;3465;42.144;24.722;2023-07-02T04:41:01;148222.38;;;21.19;100.00
6853;BME280;3465;42.144;24.722;2023-07-02T04:43:31;148222.38;;;21.19;100.00
6853;BME280;3465;42.144;24.722;2023-07-02T04:45:56;148236.25;;;21.24;100.00
6853;BME280;3465;42.144;24.722;2023-07-02T04:48:22;148256.47;;;21.33;100.00
6853;BME280;3465;42.144;24.722;2023-07-02T04:50:48;148267.88;;;21.37;100.00
6853;BME280;3465;42.144;24.722;2023-07-02T04:53:13;148231.22;;;21.22;100.00
6853;BME280;3465;42.144;24.722;2023-07-02T04:55:39;148334.81;;;21.64;100.00
6853;BME280;3465;42.144;24.722;2023-07-02T04:58:04;148374.03;;;21.79;100.00
6853;BME280;3465;42.144;24.722;2023-07-02T05:00:29;148415.75;;;21.96;100.00
6853;BME280;3465;42.144;24.722;2023-07-02T05:02:55;148463.81;;;22.15;100.00
6853;BME280;3465;42.144;24.722;2023-07-02T05:05:20;148485.31;;;22.23;100.00
6853;BME280;3465;42.144;24.722;2023-07-02T05:07:46;148486.59;;;22.24;100.00
6853;BME280;3465;42.144;24.722;2023-07-02T05:10:11;148494.16;;;22.27;100.00
6853;BME280;3465;42.144;24.722;2023-07-02T05:12:36;148476.44;;;22.20;100.00
6853;BME280;3465;42.144;24.722;2023-07-02T05:15:02;148423.34;;;21.99;100.00
6853;BME280;3465;42.144;24.722;2023-07-02T05:17:27;148413.25;;;21.95;100.00
6853;BME280;3465;42.144;24.722;2023-07-02T05:19:53;148405.69;;;21.92;100.00
6853;BME280;3465;42.144;24.722;2023-07-02T05:22:19;148405.69;;;21.92;100.00
6853;BME280;3465;42.144;24.722;2023-07-02T05:24:44;148414.47;;;21.95;100.00
6853;BME280;3465;42.144;24.722;2023-07-02T05:27:11;148430.91;;;22.02;100.00
6853;BME280;3465;42.144;24.722;2023-07-02T05:29:36;148452.44;;;22.10;100.00
6853;BME280;3465;42.144;24.722;2023-07-02T05:32:02;148478.97;;;22.21;100.00
6853;BME280;3465;42.144;24.722;2023-07-02T05:34:28;148558.72;;;22.52;100.00
6853;BME280;3465;42.144;24.722;2023-07-02T05:36:53;148629.50;;;22.81;100.00
6853;BME280;3465;42.144;24.722;2023-07-02T05:39:18;148677.56;;;23.00;100.00
6853;BME280;3465;42.144;24.722;2023-07-02T05:41:44;148699.09;;;23.08;100.00
6853;BME280;3465;42.144;24.722;2023-07-02T05:44:09;148691.50;;;23.05;100.00
6853;BME280;3465;42.144;24.722;2023-07-02T05:46:34;148671.28;;;22.97;100.00
6853;BME280;3465;42.144;24.722;2023-07-02T05:49:00;148657.34;;;22.92;100.00
6853;BME280;3465;42.144;24.722;2023-07-02T05:51:26;148625.72;;;22.79;100.00
6853;BME280;3465;42.144;24.722;2023-07-02T05:53:51;148587.81;;;22.64;100.00
6853;BME280;3465;42.144;24.722;2023-07-02T05:56:17;148552.31;;;22.50;100.00
6853;BME280;3465;42.144;24.722;2023-07-02T05:58:45;148504.25;;;22.31;100.00
6853;BME280;3465;42.144;24.722;2023-07-02T06:01:11;148470.16;;;22.17;100.00
6853;BME280;3465;42.144;24.722;2023-07-02T06:03:36;148451.16;;;22.10;100.00
6853;BME280;3465;42.144;24.722;2023-07-02T06:06:03;148473.94;;;22.19;100.00
6853;BME280;3465;42.144;24.722;2023-07-02T06:08:28;148461.28;;;22.14;100.00
6853;BME280;3465;42.144;24.722;2023-07-02T06:10:53;148466.34;;;22.16;100.00
6853;BME280;3465;42.144;24.722;2023-07-02T06:13:19;148434.72;;;22.03;100.00
6853;BME280;3465;42.144;24.722;2023-07-02T06:15:44;148432.19;;;22.02;100.00
6853;BME280;3465;42.144;24.722;2023-07-02T06:18:12;148434.72;;;22.03;100.00
6853;BME280;3465;42.144;24.722;2023-07-02T06:20:37;148476.44;;;22.20;100.00
6853;BME280;3465;42.144;24.722;2023-07-02T06:23:03;148534.63;;;22.43;100.00
6853;BME280;3465;42.144;24.722;2023-07-02T06:25:28;148610.56;;;22.73;100.00
6853;BME280;3465;42.144;24.722;2023-07-02T06:27:53;148645.97;;;22.87;100.00
6853;BME280;3465;42.144;24.722;2023-07-02T06:30:21;148716.84;;;23.15;100.00
6853;BME280;3465;42.144;24.722;2023-07-02T06:32:47;148762.41;;;23.33;100.00
6853;BME280;3465;42.144;24.722;2023-07-02T06:35:12;148796.59;;;23.47;100.00
6853;BME280;3465;42.144;24.722;2023-07-02T06:37:38;148835.81;;;23.62;100.00
6853;BME280;3465;42.144;24.722;2023-07-02T06:40:04;148830.78;;;23.60;100.00
6853;BME280;3465;42.144;24.722;2023-07-02T06:42:29;148937.13;;;24.02;100.00
6853;BME280;3465;42.144;24.722;2023-07-02T06:44:55;148985.25;;;24.22;100.00
6853;BME280;3465;42.144;24.722;2023-07-02T06:47:20;149053.66;;;24.49;100.00
6853;BME280;3465;42.144;24.722;2023-07-02T06:49:46;149128.44;;;24.78;100.00
6853;BME280;3465;42.144;24.722;2023-07-02T06:52:11;149177.84;;;24.98;100.00
6853;BME280;3465;42.144;24.722;2023-07-02T06:54:36;149233.59;;;25.20;100.00
6853;BME280;3465;42.144;24.722;2023-07-02T06:57:02;149224.72;;;25.16;100.00
6853;BME280;3465;42.144;24.722;2023-07-02T06:59:27;149302.06;;;25.47;100.00
6853;BME280;3465;42.144;24.722;2023-07-02T07:01:53;149395.88;;;25.84;100.00
6853;BME280;3465;42.144;24.722;2023-07-02T07:04:18;149433.94;;;25.99;100.00
6853;BME280;3465;42.144;24.722;2023-07-02T07:06:45;149419.97;;;25.94;100.00
6853;BME280;3465;42.144;24.722;2023-07-02T07:09:11;149416.16;;;25.92;100.00
6853;BME280;3465;42.144;24.722;2023-07-02T07:11:36;149404.78;;;25.88;100.00
6853;BME280;3465;42.144;24.722;2023-07-02T07:14:02;149286.88;;;25.41;100.00
6853;BME280;3465;42.144;24.722;2023-07-02T07:16:27;149237.38;;;25.21;100.00
6853;BME280;3465;42.144;24.722;2023-07-02T07:18:53;149267.81;;;25.33;100.00
6853;BME280;3465;42.144;24.722;2023-07-02T07:21:19;149270.41;;;25.34;100.00
6853;BME280;3465;42.144;24.722;2023-07-02T07:23:44;149333.75;;;25.60;100.00
6853;BME280;3465;42.144;24.722;2023-07-02T07:26:10;149355.31;;;25.68;100.00
6853;BME280;3465;42.144;24.722;2023-07-02T07:28:35;149357.88;;;25.69;100.00
6853;BME280;3465;42.144;24.722;2023-07-02T07:31:01;149340.13;;;25.62;100.00
6853;BME280;3465;42.144;24.722;2023-07-02T07:33:26;149304.63;;;25.48;100.00
6853;BME280;3465;42.144;24.722;2023-07-02T07:35:52;149274.19;;;25.36;100.00
6853;BME280;3465;42.144;24.722;2023-07-02T07:38:18;149614.09;;;26.70;100.00
6853;BME280;3465;42.144;24.722;2023-07-02T07:40:43;149880.69;;;27.76;93.01
6853;BME280;3465;42.144;24.722;2023-07-02T07:43:09;150167.81;;;28.89;87.78
6853;BME280;3465;42.144;24.722;2023-07-02T07:45:34;150410.66;;;29.85;84.72
6853;BME280;3465;42.144;24.722;2023-07-02T07:48:00;150490.81;;;30.17;82.83
6853;BME280;3465;42.144;24.722;2023-07-02T07:50:26;150372.53;;;29.70;79.07
6853;BME280;3465;42.144;24.722;2023-07-02T07:52:51;150319.09;;;29.49;81.72
6853;BME280;3465;42.144;24.722;2023-07-02T07:55:17;150437.38;;;29.96;82.44
6853;BME280;3465;42.144;24.722;2023-07-02T07:57:43;150654.94;;;30.82;76.05
6853;BME280;3465;42.144;24.722;2023-07-02T08:00:08;150674.06;;;30.89;76.35
6853;BME280;3465;42.144;24.722;2023-07-02T08:02:37;150447.53;;;30.00;73.73
6853;BME280;3465;42.144;24.722;2023-07-02T08:05:03;150401.78;;;29.82;77.12
6853;BME280;3465;42.144;24.722;2023-07-02T08:07:31;150516.31;;;30.27;77.03
6853;BME280;3465;42.144;24.722;2023-07-02T08:09:57;150598.94;;;30.59;73.76
6853;BME280;3465;42.144;24.722;2023-07-02T08:12:22;150719.88;;;31.07;71.49
6853;BME280;3465;42.144;24.722;2023-07-02T08:14:49;150849.75;;;31.58;70.50
6853;BME280;3465;42.144;24.722;2023-07-02T08:17:14;150961.81;;;32.02;70.43
6853;BME280;3465;42.144;24.722;2023-07-02T08:19:39;151203.94;;;32.98;67.05
6853;BME280;3465;42.144;24.722;2023-07-02T08:22:05;151373.44;;;33.65;63.59
6853;BME280;3465;42.144;24.722;2023-07-02T08:24:30;151449.97;;;33.95;59.79
6853;BME280;3465;42.144;24.722;2023-07-02T08:26:57;151657.94;;;34.77;60.14
6853;BME280;3465;42.144;24.722;2023-07-02T08:29:23;151881.31;;;35.64;57.06
6853;BME280;3465;42.144;24.722;2023-07-02T08:31:48;151793.16;;;35.30;55.24
6853;BME280;3465;42.144;24.722;2023-07-02T08:34:13;151716.63;;;35.00;55.85
6853;BME280;3465;42.144;24.722;2023-07-02T08:36:39;151966.88;;;35.98;51.18
6853;BME280;3465;42.144;24.722;2023-07-02T08:39:04;151725.56;;;35.03;52.50
6853;BME280;3465;42.144;24.722;2023-07-02T08:41:30;151717.91;;;35.00;52.78
6853;BME280;3465;42.144;24.722;2023-07-02T08:43:57;151615.81;;;34.60;53.87
6853;BME280;3465;42.144;24.722;2023-07-02T08:46:24;151564.78;;;34.40;54.49
6853;BME280;3465;42.144;24.722;2023-07-02T08:48:50;151744.69;;;35.11;52.77
6853;BME280;3465;42.144;24.722;2023-07-02T08:51:15;151968.16;;;35.98;49.76
6853;BME280;3465;42.144;24.722;2023-07-02T08:53:41;152093.31;;;36.48;50.43
6853;BME280;3465;42.144;24.722;2023-07-02T08:56:06;152185.28;;;36.84;46.41
6853;BME280;3465;42.144;24.722;2023-07-02T08:58:31;152378.25;;;37.60;43.86
6853;BME280;3465;42.144;24.722;2023-07-02T09:01:10;152135.47;;;36.64;46.32
6853;BME280;3465;42.144;24.722;2023-07-02T09:03:37;152104.78;;;36.52;45.12
6853;BME280;3465;42.144;24.722;2023-07-02T09:06:10;151978.34;;;36.03;46.11
6853;BME280;3465;42.144;24.722;2023-07-02T09:08:36;151724.28;;;35.03;48.50
6853;BME280;3465;42.144;24.722;2023-07-02T09:13:52;151413.00;;;33.80;52.21
6853;BME280;3465;42.144;24.722;2023-07-02T09:16:30;151262.50;;;33.21;53.63
6853;BME280;3465;42.144;24.722;2023-07-02T09:19:03;151114.72;;;32.63;54.75
6853;BME280;3465;42.144;24.722;2023-07-02T09:21:45;151045.88;;;32.36;56.84
6853;BME280;3465;42.144;24.722;2023-07-02T09:26:54;150960.53;;;32.02;58.16
6853;BME280;3465;42.144;24.722;2023-07-02T09:29:27;150870.13;;;31.66;59.34
6853;BME280;3465;42.144;24.722;2023-07-02T09:32:03;150866.31;;;31.65;59.38
6853;BME280;3465;42.144;24.722;2023-07-02T09:34:29;150839.53;;;31.54;61.53
6853;BME280;3465;42.144;24.722;2023-07-02T09:36:56;150732.56;;;31.12;60.23
6853;BME280;3465;42.144;24.722;2023-07-02T09:39:27;150803.91;;;31.40;60.51
6853;BME280;3465;42.144;24.722;2023-07-02T09:41:54;150895.53;;;31.76;59.35
6853;BME280;3465;42.144;24.722;2023-07-02T09:44:21;150915.97;;;31.84;57.36
6853;BME280;3465;42.144;24.722;2023-07-02T09:49:25;150989.81;;;32.14;58.01
6853;BME280;3465;42.144;24.722;2023-07-02T09:51:51;150858.63;;;31.62;58.85
6853;BME280;3465;42.144;24.722;2023-07-02T09:54:17;150777.09;;;31.30;60.27
6853;BME280;3465;42.144;24.722;2023-07-02T09:56:45;150755.50;;;31.21;61.03
6853;BME280;3465;42.144;24.722;2023-07-02T09:59:11;150653.72;;;30.81;63.18
6853;BME280;3465;42.144;24.722;2023-07-02T10:01:36;150577.34;;;30.51;62.52
6853;BME280;3465;42.144;24.722;2023-07-02T10:04:15;150540.47;;;30.36;63.33
6853;BME280;3465;42.144;24.722;2023-07-02T10:06:51;150489.50;;;30.16;64.29
6853;BME280;3465;42.144;24.722;2023-07-02T10:09:18;150434.84;;;29.95;66.31
6853;BME280;3465;42.144;24.722;2023-07-02T10:11:43;150404.31;;;29.83;66.79
6853;BME280;3465;42.144;24.722;2023-07-02T10:14:09;150353.44;;;29.63;69.83
6853;BME280;3465;42.144;24.722;2023-07-02T10:16:54;150242.84;;;29.19;78.70
6853;BME280;3465;42.144;24.722;2023-07-02T10:19:20;150218.72;;;29.09;78.29
6853;BME280;3465;42.144;24.722;2023-07-02T10:21:47;150188.16;;;28.97;78.90
6853;BME280;3465;42.144;24.722;2023-07-02T10:24:25;150144.97;;;28.80;80.55
6853;BME280;3465;42.144;24.722;2023-07-02T10:27:01;150086.50;;;28.57;81.56
6853;BME280;3465;42.144;24.722;2023-07-02T10:29:28;150034.38;;;28.37;82.79
6853;BME280;3465;42.144;24.722;2023-07-02T10:31:55;149965.81;;;28.10;83.73
6853;BME280;3465;42.144;24.722;2023-07-02T10:34:32;149925.19;;;27.93;84.96
6853;BME280;3465;42.144;24.722;2023-07-02T10:36:59;149823.56;;;27.53;87.15
6853;BME280;3465;42.144;24.722;2023-07-02T10:39:24;149770.25;;;27.32;88.83
6853;BME280;3465;42.144;24.722;2023-07-02T10:41:51;149709.28;;;27.08;93.12
6853;BME280;3465;42.144;24.722;2023-07-02T10:44:17;149649.66;;;26.85;97.08
6853;BME280;3465;42.144;24.722;2023-07-02T10:46:46;149567.13;;;26.52;97.75
6853;BME280;3465;42.144;24.722;2023-07-02T10:49:12;149484.69;;;26.19;100.00
6853;BME280;3465;42.144;24.722;2023-07-02T10:51:38;149402.25;;;25.87;100.00
6853;BME280;3465;42.144;24.722;2023-07-02T10:54:04;149421.25;;;25.94;100.00
6853;BME280;3465;42.144;24.722;2023-07-02T10:56:31;149392.09;;;25.83;100.00
6853;BME280;3465;42.144;24.722;2023-07-02T10:58:57;149333.75;;;25.60;100.00
6853;BME280;3465;42.144;24.722;2023-07-02T11:01:29;149285.59;;;25.41;100.00
6853;BME280;3465;42.144;24.722;2023-07-02T11:04:00;149275.47;;;25.37;100.00
6853;BME280;3465;42.144;24.722;2023-07-02T11:06:29;149174.06;;;24.96;100.00
6853;BME280;3465;42.144;24.722;2023-07-02T11:08:56;149072.66;;;24.56;100.00
6853;BME280;3465;42.144;24.722;2023-07-02T11:11:22;149053.66;;;24.49;100.00
6853;BME280;3465;42.144;24.722;2023-07-02T11:13:49;149068.84;;;24.55;100.00
6853;BME280;3465;42.144;24.722;2023-07-02T11:16:23;149124.63;;;24.77;100.00
6853;BME280;3465;42.144;24.722;2023-07-02T11:19:07;149151.22;;;24.87;100.00
6853;BME280;3465;42.144;24.722;2023-07-02T11:21:36;149142.38;;;24.84;100.00
6853;BME280;3465;42.144;24.722;2023-07-02T11:24:06;149152.50;;;24.88;100.00
6853;BME280;3465;42.144;24.722;2023-07-02T11:26:40;149213.31;;;25.12;100.00
6853;BME280;3465;42.144;24.722;2023-07-02T11:29:11;149238.66;;;25.22;100.00
6853;BME280;3465;42.144;24.722;2023-07-02T11:31:37;149276.75;;;25.37;100.00
6853;BME280;3465;42.144;24.722;2023-07-02T11:34:20;149323.63;;;25.56;100.00
6853;BME280;3465;42.144;24.722;2023-07-02T11:36:46;149329.94;;;25.58;100.00
6853;BME280;3465;42.144;24.722;2023-07-02T11:39:11;149272.91;;;25.35;100.00
6853;BME280;3465;42.144;24.722;2023-07-02T11:41:41;149314.75;;;25.52;100.00
6853;BME280;3465;42.144;24.722;2023-07-02T11:44:08;149281.78;;;25.39;100.00
6853;BME280;3465;42.144;24.722;2023-07-02T11:46:34;149281.78;;;25.39;100.00
6853;BME280;3465;42.144;24.722;2023-07-02T11:49:03;149267.81;;;25.33;100.00
6853;BME280;3465;42.144;24.722;2023-07-02T11:51:35;149251.34;;;25.27;100.00
6853;BME280;3465;42.144;24.722;2023-07-02T11:54:02;149179.13;;;24.98;100.00
6853;BME280;3465;42.144;24.722;2023-07-02T11:56:28;149182.94;;;25.00;100.00
6853;BME280;3465;42.144;24.722;2023-07-02T11:58:53;149175.34;;;24.97;100.00
6853;BME280;3465;42.144;24.722;2023-07-02T12:01:19;149144.91;;;24.85;100.00
6853;BME280;3465;42.144;24.722;2023-07-02T12:03:45;149180.38;;;24.99;100.00
6853;BME280;3465;42.144;24.722;2023-07-02T12:06:10;149134.78;;;24.81;100.00
6853;BME280;3465;42.144;24.722;2023-07-02T12:08:36;149149.97;;;24.87;100.00
6853;BME280;3465;42.144;24.722;2023-07-02T12:11:01;149255.16;;;25.28;100.00
6853;BME280;3465;42.144;24.722;2023-07-02T12:13:26;149328.72;;;25.58;100.00
6853;BME280;3465;42.144;24.722;2023-07-02T12:15:52;149400.97;;;25.86;100.00
6853;BME280;3465;42.144;24.722;2023-07-02T12:18:17;149423.78;;;25.95;100.00
6853;BME280;3465;42.144;24.722;2023-07-02T12:20:43;149472.00;;;26.14;100.00
6853;BME280;3465;42.144;24.722;2023-07-02T12:23:09;149458.06;;;26.09;100.00
6853;BME280;3465;42.144;24.722;2023-07-02T12:25:35;149511.34;;;26.30;100.00
6853;BME280;3465;42.144;24.722;2023-07-02T12:28:02;149688.97;;;27.00;100.00
6853;BME280;3465;42.144;24.722;2023-07-02T12:30:28;149728.31;;;27.16;98.48
6853;BME280;3465;42.144;24.722;2023-07-02T12:32:53;149724.50;;;27.14;94.65
6853;BME280;3465;42.144;24.722;2023-07-02T12:35:19;149774.06;;;27.34;95.49
6853;BME280;3465;42.144;24.722;2023-07-02T12:37:45;149718.19;;;27.12;92.94
6853;BME280;3465;42.144;24.722;2023-07-02T12:40:11;149754.97;;;27.26;91.23
6853;BME280;3465;42.144;24.722;2023-07-02T12:42:37;149767.72;;;27.31;92.80
6853;BME280;3465;42.144;24.722;2023-07-02T12:45:03;149714.38;;;27.10;95.75
6853;BME280;3465;42.144;24.722;2023-07-02T12:47:29;149685.19;;;26.99;96.61
6853;BME280;3465;42.144;24.722;2023-07-02T12:49:54;149631.88;;;26.78;100.00
6853;BME280;3465;42.144;24.722;2023-07-02T12:52:20;149586.16;;;26.59;100.00
6853;BME280;3465;42.144;24.722;2023-07-02T12:54:45;149512.56;;;26.30;100.00
6853;BME280;3465;42.144;24.722;2023-07-02T12:57:10;149504.97;;;26.27;100.00
6853;BME280;3465;42.144;24.722;2023-07-02T12:59:36;149496.09;;;26.24;100.00